sensor_id;sensor_type;location;lat;lon;timestamp;P1;durP1;ratioP1;P2;durP2;ratioP2
72301;SDS011;60235;52.234;5.186;2023-01-29T00:01:56;20.00;;;8.45;;
72301;SDS011;60235;52.234;5.186;2023-01-29T00:04:22;18.70;;;8.90;;
72301;SDS011;60235;52.234;5.186;2023-01-29T00:06:48;19.50;;;9.02;;
72301;SDS011;60235;52.234;5.186;2023-01-29T00:09:14;22.55;;;9.45;;
72301;SDS011;60235;52.234;5.186;2023-01-29T00:11:40;22.70;;;9.75;;
72301;SDS011;60235;52.234;5.186;2023-01-29T00:14:06;20.77;;;9.13;;
72301;SDS011;60235;52.234;5.186;2023-01-29T00:16:32;20.30;;;8.52;;
72301;SDS011;60235;52.234;5.186;2023-01-29T00:18:59;24.05;;;9.98;;
72301;SDS011;60235;52.234;5.186;2023-01-29T00:21:26;22.48;;;9.50;;
72301;SDS011;60235;52.234;5.186;2023-01-29T00:23:54;22.92;;;10.00;;
72301;SDS011;60235;52.234;5.186;2023-01-29T00:26:20;21.92;;;9.00;;
72301;SDS011;60235;52.234;5.186;2023-01-29T00:28:47;21.63;;;9.40;;
72301;SDS011;60235;52.234;5.186;2023-01-29T00:31:15;21.33;;;9.23;;
72301;SDS011;60235;52.234;5.186;2023-01-29T00:33:41;19.92;;;9.57;;
72301;SDS011;60235;52.234;5.186;2023-01-29T00:36:08;21.98;;;9.60;;
72301;SDS011;60235;52.234;5.186;2023-01-29T00:38:35;20.38;;;9.20;;
72301;SDS011;60235;52.234;5.186;2023-01-29T00:41:08;22.08;;;9.60;;
72301;SDS011;60235;52.234;5.186;2023-01-29T00:43:53;22.35;;;9.38;;
72301;SDS011;60235;52.234;5.186;2023-01-29T00:46:37;22.52;;;9.55;;
72301;SDS011;60235;52.234;5.186;2023-01-29T00:49:03;21.30;;;8.70;;
72301;SDS011;60235;52.234;5.186;2023-01-29T00:51:30;18.85;;;9.10;;
72301;SDS011;60235;52.234;5.186;2023-01-29T00:53:56;20.42;;;9.05;;
72301;SDS011;60235;52.234;5.186;2023-01-29T00:56:26;24.50;;;10.18;;
72301;SDS011;60235;52.234;5.186;2023-01-29T00:58:52;22.95;;;9.68;;
72301;SDS011;60235;52.234;5.186;2023-01-29T01:01:18;25.77;;;10.10;;
72301;SDS011;60235;52.234;5.186;2023-01-29T01:04:03;20.60;;;9.93;;
72301;SDS011;60235;52.234;5.186;2023-01-29T01:06:29;24.85;;;9.63;;
72301;SDS011;60235;52.234;5.186;2023-01-29T01:08:55;22.17;;;8.30;;
72301;SDS011;60235;52.234;5.186;2023-01-29T01:11:40;23.55;;;10.98;;
72301;SDS011;60235;52.234;5.186;2023-01-29T01:14:06;25.45;;;11.23;;
72301;SDS011;60235;52.234;5.186;2023-01-29T01:16:32;22.15;;;10.68;;
72301;SDS011;60235;52.234;5.186;2023-01-29T01:18:58;26.15;;;12.38;;
72301;SDS011;60235;52.234;5.186;2023-01-29T01:21:24;25.60;;;10.90;;
72301;SDS011;60235;52.234;5.186;2023-01-29T01:23:50;24.70;;;11.27;;
72301;SDS011;60235;52.234;5.186;2023-01-29T01:26:17;25.38;;;10.98;;
72301;SDS011;60235;52.234;5.186;2023-01-29T01:28:43;21.70;;;10.10;;
72301;SDS011;60235;52.234;5.186;2023-01-29T01:31:09;21.45;;;9.23;;
72301;SDS011;60235;52.234;5.186;2023-01-29T01:33:36;22.02;;;10.05;;
72301;SDS011;60235;52.234;5.186;2023-01-29T01:36:02;21.65;;;9.85;;
72301;SDS011;60235;52.234;5.186;2023-01-29T01:38:28;21.85;;;9.82;;
72301;SDS011;60235;52.234;5.186;2023-01-29T01:40:54;22.52;;;9.15;;
72301;SDS011;60235;52.234;5.186;2023-01-29T01:43:20;23.83;;;9.75;;
72301;SDS011;60235;52.234;5.186;2023-01-29T01:45:46;23.63;;;10.40;;
72301;SDS011;60235;52.234;5.186;2023-01-29T01:48:14;21.55;;;10.02;;
72301;SDS011;60235;52.234;5.186;2023-01-29T01:50:42;23.90;;;9.85;;
72301;SDS011;60235;52.234;5.186;2023-01-29T01:53:11;22.35;;;9.18;;
72301;SDS011;60235;52.234;5.186;2023-01-29T01:55:39;19.38;;;8.85;;
72301;SDS011;60235;52.234;5.186;2023-01-29T01:58:53;21.02;;;9.02;;
72301;SDS011;60235;52.234;5.186;2023-01-29T02:00:53;19.45;;;8.68;;
72301;SDS011;60235;52.234;5.186;2023-01-29T02:03:19;20.55;;;9.40;;
72301;SDS011;60235;52.234;5.186;2023-01-29T02:06:04;22.00;;;8.95;;
72301;SDS011;60235;52.234;5.186;2023-01-29T02:09:04;21.00;;;8.98;;
72301;SDS011;60235;52.234;5.186;2023-01-29T02:11:49;19.38;;;7.82;;
72301;SDS011;60235;52.234;5.186;2023-01-29T02:14:15;22.45;;;9.27;;
72301;SDS011;60235;52.234;5.186;2023-01-29T02:16:41;19.98;;;8.98;;
72301;SDS011;60235;52.234;5.186;2023-01-29T02:27:13;25.17;;;10.48;;
72301;SDS011;60235;52.234;5.186;2023-01-29T02:34:51;23.65;;;9.07;;
72301;SDS011;60235;52.234;5.186;2023-01-29T02:37:38;23.20;;;9.52;;
72301;SDS011;60235;52.234;5.186;2023-01-29T02:42:35;20.30;;;9.18;;
72301;SDS011;60235;52.234;5.186;2023-01-29T02:45:21;22.30;;;9.13;;
72301;SDS011;60235;52.234;5.186;2023-01-29T02:47:59;21.20;;;9.60;;
72301;SDS011;60235;52.234;5.186;2023-01-29T02:58:16;23.58;;;9.88;;
72301;SDS011;60235;52.234;5.186;2023-01-29T03:00:43;25.08;;;9.52;;
72301;SDS011;60235;52.234;5.186;2023-01-29T03:03:17;24.00;;;10.68;;
72301;SDS011;60235;52.234;5.186;2023-01-29T03:08:30;24.27;;;10.00;;
72301;SDS011;60235;52.234;5.186;2023-01-29T03:11:06;23.63;;;10.70;;
72301;SDS011;60235;52.234;5.186;2023-01-29T03:16:17;24.08;;;12.13;;
72301;SDS011;60235;52.234;5.186;2023-01-29T03:18:47;23.25;;;11.25;;
72301;SDS011;60235;52.234;5.186;2023-01-29T03:21:17;25.77;;;11.38;;
72301;SDS011;60235;52.234;5.186;2023-01-29T03:24:03;27.77;;;11.98;;
72301;SDS011;60235;52.234;5.186;2023-01-29T03:26:49;26.02;;;11.43;;
72301;SDS011;60235;52.234;5.186;2023-01-29T03:29:34;25.15;;;11.20;;
72301;SDS011;60235;52.234;5.186;2023-01-29T03:32:19;26.55;;;11.88;;
72301;SDS011;60235;52.234;5.186;2023-01-29T03:34:48;27.65;;;12.45;;
72301;SDS011;60235;52.234;5.186;2023-01-29T03:39:43;26.38;;;11.88;;
72301;SDS011;60235;52.234;5.186;2023-01-29T03:49:42;29.98;;;12.85;;
72301;SDS011;60235;52.234;5.186;2023-01-29T03:54:47;29.83;;;13.15;;
72301;SDS011;60235;52.234;5.186;2023-01-29T03:57:27;32.95;;;14.30;;
72301;SDS011;60235;52.234;5.186;2023-01-29T04:02:34;28.20;;;12.85;;
72301;SDS011;60235;52.234;5.186;2023-01-29T04:05:04;30.10;;;13.38;;
72301;SDS011;60235;52.234;5.186;2023-01-29T04:07:34;33.22;;;14.45;;
72301;SDS011;60235;52.234;5.186;2023-01-29T04:10:02;32.42;;;13.95;;
72301;SDS011;60235;52.234;5.186;2023-01-29T04:12:32;30.50;;;13.85;;
72301;SDS011;60235;52.234;5.186;2023-01-29T04:15:00;29.80;;;14.15;;
72301;SDS011;60235;52.234;5.186;2023-01-29T04:17:27;31.70;;;14.45;;
72301;SDS011;60235;52.234;5.186;2023-01-29T04:19:57;33.72;;;13.73;;
72301;SDS011;60235;52.234;5.186;2023-01-29T04:22:25;31.05;;;13.82;;
72301;SDS011;60235;52.234;5.186;2023-01-29T04:24:52;34.40;;;14.90;;
72301;SDS011;60235;52.234;5.186;2023-01-29T04:32:43;35.15;;;14.75;;
72301;SDS011;60235;52.234;5.186;2023-01-29T04:35:24;33.28;;;14.63;;
72301;SDS011;60235;52.234;5.186;2023-01-29T04:40:32;31.15;;;14.07;;
72301;SDS011;60235;52.234;5.186;2023-01-29T04:45:35;37.13;;;15.75;;
72301;SDS011;60235;52.234;5.186;2023-01-29T04:48:14;35.83;;;15.65;;
72301;SDS011;60235;52.234;5.186;2023-01-29T04:56:04;30.50;;;14.05;;
72301;SDS011;60235;52.234;5.186;2023-01-29T04:58:32;35.58;;;14.27;;
72301;SDS011;60235;52.234;5.186;2023-01-29T05:03:26;32.55;;;13.63;;
72301;SDS011;60235;52.234;5.186;2023-01-29T05:05:53;31.20;;;13.63;;
72301;SDS011;60235;52.234;5.186;2023-01-29T05:08:20;33.55;;;14.13;;
72301;SDS011;60235;52.234;5.186;2023-01-29T05:10:48;32.03;;;13.90;;
72301;SDS011;60235;52.234;5.186;2023-01-29T05:13:14;34.55;;;13.52;;
72301;SDS011;60235;52.234;5.186;2023-01-29T05:18:27;28.33;;;12.45;;
72301;SDS011;60235;52.234;5.186;2023-01-29T05:20:53;33.97;;;14.45;;
72301;SDS011;60235;52.234;5.186;2023-01-29T05:23:21;29.33;;;12.10;;
72301;SDS011;60235;52.234;5.186;2023-01-29T05:25:47;33.67;;;14.57;;
72301;SDS011;60235;52.234;5.186;2023-01-29T05:28:14;27.60;;;12.73;;
72301;SDS011;60235;52.234;5.186;2023-01-29T05:30:42;32.42;;;12.68;;
72301;SDS011;60235;52.234;5.186;2023-01-29T05:33:10;37.47;;;15.20;;
72301;SDS011;60235;52.234;5.186;2023-01-29T05:35:37;32.05;;;13.50;;
72301;SDS011;60235;52.234;5.186;2023-01-29T05:38:03;35.28;;;12.73;;
72301;SDS011;60235;52.234;5.186;2023-01-29T05:40:29;31.27;;;13.60;;
72301;SDS011;60235;52.234;5.186;2023-01-29T05:42:55;31.50;;;13.52;;
72301;SDS011;60235;52.234;5.186;2023-01-29T05:45:21;36.38;;;14.57;;
72301;SDS011;60235;52.234;5.186;2023-01-29T05:47:47;33.65;;;14.10;;
72301;SDS011;60235;52.234;5.186;2023-01-29T05:50:13;29.90;;;13.05;;
72301;SDS011;60235;52.234;5.186;2023-01-29T05:52:39;31.30;;;14.02;;
72301;SDS011;60235;52.234;5.186;2023-01-29T05:55:06;32.35;;;13.68;;
72301;SDS011;60235;52.234;5.186;2023-01-29T05:57:32;31.10;;;13.43;;
72301;SDS011;60235;52.234;5.186;2023-01-29T05:59:58;31.88;;;13.00;;
72301;SDS011;60235;52.234;5.186;2023-01-29T06:02:24;29.90;;;14.48;;
72301;SDS011;60235;52.234;5.186;2023-01-29T06:04:50;32.25;;;13.63;;
72301;SDS011;60235;52.234;5.186;2023-01-29T06:07:17;32.03;;;13.88;;
72301;SDS011;60235;52.234;5.186;2023-01-29T06:09:43;30.90;;;12.98;;
72301;SDS011;60235;52.234;5.186;2023-01-29T06:12:09;35.00;;;14.20;;
72301;SDS011;60235;52.234;5.186;2023-01-29T06:14:35;34.15;;;14.70;;
72301;SDS011;60235;52.234;5.186;2023-01-29T06:17:01;32.17;;;13.63;;
72301;SDS011;60235;52.234;5.186;2023-01-29T06:19:27;33.53;;;14.60;;
72301;SDS011;60235;52.234;5.186;2023-01-29T06:21:53;32.70;;;12.75;;
72301;SDS011;60235;52.234;5.186;2023-01-29T06:24:19;31.73;;;13.95;;
72301;SDS011;60235;52.234;5.186;2023-01-29T06:26:45;30.23;;;13.65;;
72301;SDS011;60235;52.234;5.186;2023-01-29T06:29:11;33.17;;;14.43;;
72301;SDS011;60235;52.234;5.186;2023-01-29T06:31:37;32.42;;;14.18;;
72301;SDS011;60235;52.234;5.186;2023-01-29T06:34:04;31.55;;;14.15;;
72301;SDS011;60235;52.234;5.186;2023-01-29T06:36:30;33.45;;;14.25;;
72301;SDS011;60235;52.234;5.186;2023-01-29T06:38:56;33.65;;;15.60;;
72301;SDS011;60235;52.234;5.186;2023-01-29T06:41:22;32.95;;;13.90;;
72301;SDS011;60235;52.234;5.186;2023-01-29T06:43:49;32.08;;;14.60;;
72301;SDS011;60235;52.234;5.186;2023-01-29T06:46:15;37.85;;;15.00;;
72301;SDS011;60235;52.234;5.186;2023-01-29T06:48:41;32.33;;;14.70;;
72301;SDS011;60235;52.234;5.186;2023-01-29T06:51:08;30.85;;;13.30;;
72301;SDS011;60235;52.234;5.186;2023-01-29T06:53:34;30.70;;;14.07;;
72301;SDS011;60235;52.234;5.186;2023-01-29T06:56:00;34.42;;;15.77;;
72301;SDS011;60235;52.234;5.186;2023-01-29T06:58:26;34.33;;;14.25;;
72301;SDS011;60235;52.234;5.186;2023-01-29T07:00:52;32.25;;;15.77;;
72301;SDS011;60235;52.234;5.186;2023-01-29T07:03:18;35.55;;;15.27;;
72301;SDS011;60235;52.234;5.186;2023-01-29T07:05:51;38.17;;;15.32;;
72301;SDS011;60235;52.234;5.186;2023-01-29T07:08:17;31.63;;;13.40;;
72301;SDS011;60235;52.234;5.186;2023-01-29T07:10:46;33.85;;;13.38;;
72301;SDS011;60235;52.234;5.186;2023-01-29T07:13:12;34.33;;;15.45;;
72301;SDS011;60235;52.234;5.186;2023-01-29T07:15:38;35.65;;;15.02;;
72301;SDS011;60235;52.234;5.186;2023-01-29T07:18:04;34.63;;;15.13;;
72301;SDS011;60235;52.234;5.186;2023-01-29T07:20:36;37.97;;;17.00;;
72301;SDS011;60235;52.234;5.186;2023-01-29T07:23:02;31.42;;;13.95;;
72301;SDS011;60235;52.234;5.186;2023-01-29T07:25:28;28.77;;;13.00;;
72301;SDS011;60235;52.234;5.186;2023-01-29T07:27:55;33.72;;;14.43;;
72301;SDS011;60235;52.234;5.186;2023-01-29T07:30:21;33.97;;;14.20;;
72301;SDS011;60235;52.234;5.186;2023-01-29T07:32:47;33.03;;;14.13;;
72301;SDS011;60235;52.234;5.186;2023-01-29T07:35:13;32.65;;;14.73;;
72301;SDS011;60235;52.234;5.186;2023-01-29T07:37:39;31.50;;;14.30;;
72301;SDS011;60235;52.234;5.186;2023-01-29T07:40:05;33.13;;;15.02;;
72301;SDS011;60235;52.234;5.186;2023-01-29T07:42:36;33.85;;;14.98;;
72301;SDS011;60235;52.234;5.186;2023-01-29T07:45:03;34.17;;;14.48;;
72301;SDS011;60235;52.234;5.186;2023-01-29T07:47:29;31.52;;;13.27;;
72301;SDS011;60235;52.234;5.186;2023-01-29T07:49:55;26.98;;;12.18;;
72301;SDS011;60235;52.234;5.186;2023-01-29T07:52:21;28.55;;;13.85;;
72301;SDS011;60235;52.234;5.186;2023-01-29T07:54:47;29.23;;;13.68;;
72301;SDS011;60235;52.234;5.186;2023-01-29T07:57:13;28.50;;;12.88;;
72301;SDS011;60235;52.234;5.186;2023-01-29T07:59:39;26.60;;;13.27;;
72301;SDS011;60235;52.234;5.186;2023-01-29T08:02:05;31.08;;;13.57;;
72301;SDS011;60235;52.234;5.186;2023-01-29T08:04:31;35.80;;;14.02;;
72301;SDS011;60235;52.234;5.186;2023-01-29T08:06:57;28.95;;;14.27;;
72301;SDS011;60235;52.234;5.186;2023-01-29T08:09:23;26.48;;;13.73;;
72301;SDS011;60235;52.234;5.186;2023-01-29T08:11:49;31.17;;;14.27;;
72301;SDS011;60235;52.234;5.186;2023-01-29T08:14:15;34.58;;;14.80;;
72301;SDS011;60235;52.234;5.186;2023-01-29T08:16:41;30.58;;;14.23;;
72301;SDS011;60235;52.234;5.186;2023-01-29T08:19:07;28.42;;;13.70;;
72301;SDS011;60235;52.234;5.186;2023-01-29T08:21:33;27.75;;;13.35;;
72301;SDS011;60235;52.234;5.186;2023-01-29T08:23:59;28.65;;;13.38;;
72301;SDS011;60235;52.234;5.186;2023-01-29T08:26:25;31.55;;;14.52;;
72301;SDS011;60235;52.234;5.186;2023-01-29T08:28:51;27.83;;;12.65;;
72301;SDS011;60235;52.234;5.186;2023-01-29T08:31:18;27.90;;;13.23;;
72301;SDS011;60235;52.234;5.186;2023-01-29T08:33:47;25.58;;;11.70;;
72301;SDS011;60235;52.234;5.186;2023-01-29T08:36:13;33.60;;;13.63;;
72301;SDS011;60235;52.234;5.186;2023-01-29T08:38:39;29.42;;;13.10;;
72301;SDS011;60235;52.234;5.186;2023-01-29T08:41:06;35.03;;;14.70;;
72301;SDS011;60235;52.234;5.186;2023-01-29T08:43:32;25.17;;;11.52;;
72301;SDS011;60235;52.234;5.186;2023-01-29T08:46:01;29.45;;;13.50;;
72301;SDS011;60235;52.234;5.186;2023-01-29T08:48:27;28.20;;;12.43;;
72301;SDS011;60235;52.234;5.186;2023-01-29T08:50:56;27.85;;;12.35;;
72301;SDS011;60235;52.234;5.186;2023-01-29T08:53:22;30.55;;;12.75;;
72301;SDS011;60235;52.234;5.186;2023-01-29T08:55:48;35.42;;;14.07;;
72301;SDS011;60235;52.234;5.186;2023-01-29T08:58:15;29.48;;;13.70;;
72301;SDS011;60235;52.234;5.186;2023-01-29T09:00:40;27.83;;;12.13;;
72301;SDS011;60235;52.234;5.186;2023-01-29T09:03:06;25.85;;;12.40;;
72301;SDS011;60235;52.234;5.186;2023-01-29T09:05:34;27.50;;;13.20;;
72301;SDS011;60235;52.234;5.186;2023-01-29T09:08:00;24.40;;;12.25;;
72301;SDS011;60235;52.234;5.186;2023-01-29T09:10:26;27.42;;;12.73;;
72301;SDS011;60235;52.234;5.186;2023-01-29T09:12:52;25.25;;;12.98;;
72301;SDS011;60235;52.234;5.186;2023-01-29T09:15:18;26.45;;;13.35;;
72301;SDS011;60235;52.234;5.186;2023-01-29T09:17:45;24.92;;;11.90;;
72301;SDS011;60235;52.234;5.186;2023-01-29T09:20:13;27.33;;;12.45;;
72301;SDS011;60235;52.234;5.186;2023-01-29T09:22:38;26.52;;;12.00;;
72301;SDS011;60235;52.234;5.186;2023-01-29T09:25:05;27.63;;;12.82;;
72301;SDS011;60235;52.234;5.186;2023-01-29T09:27:31;28.35;;;13.10;;
72301;SDS011;60235;52.234;5.186;2023-01-29T09:29:57;26.17;;;13.40;;
72301;SDS011;60235;52.234;5.186;2023-01-29T09:32:23;29.70;;;12.80;;
72301;SDS011;60235;52.234;5.186;2023-01-29T09:34:49;28.77;;;13.55;;
72301;SDS011;60235;52.234;5.186;2023-01-29T09:37:15;29.63;;;13.30;;
72301;SDS011;60235;52.234;5.186;2023-01-29T09:39:47;29.42;;;13.77;;
72301;SDS011;60235;52.234;5.186;2023-01-29T09:42:15;28.50;;;13.20;;
72301;SDS011;60235;52.234;5.186;2023-01-29T09:45:03;24.75;;;12.77;;
72301;SDS011;60235;52.234;5.186;2023-01-29T09:47:31;31.73;;;14.65;;
72301;SDS011;60235;52.234;5.186;2023-01-29T09:52:28;30.88;;;14.30;;
72301;SDS011;60235;52.234;5.186;2023-01-29T09:55:00;30.23;;;12.80;;
72301;SDS011;60235;52.234;5.186;2023-01-29T09:57:49;29.77;;;12.77;;
72301;SDS011;60235;52.234;5.186;2023-01-29T10:00:14;31.77;;;14.15;;
72301;SDS011;60235;52.234;5.186;2023-01-29T10:02:47;28.55;;;13.82;;
72301;SDS011;60235;52.234;5.186;2023-01-29T10:08:21;27.52;;;12.85;;
72301;SDS011;60235;52.234;5.186;2023-01-29T10:18:46;27.77;;;13.77;;
72301;SDS011;60235;52.234;5.186;2023-01-29T10:23:49;29.80;;;14.52;;
72301;SDS011;60235;52.234;5.186;2023-01-29T10:26:19;28.73;;;13.38;;
72301;SDS011;60235;52.234;5.186;2023-01-29T10:28:47;27.23;;;12.65;;
72301;SDS011;60235;52.234;5.186;2023-01-29T10:31:17;29.42;;;13.38;;
72301;SDS011;60235;52.234;5.186;2023-01-29T10:33:46;29.75;;;13.48;;
72301;SDS011;60235;52.234;5.186;2023-01-29T10:38:43;24.83;;;12.52;;
72301;SDS011;60235;52.234;5.186;2023-01-29T11:01:18;31.95;;;14.30;;
72301;SDS011;60235;52.234;5.186;2023-01-29T11:03:44;37.47;;;17.33;;
72301;SDS011;60235;52.234;5.186;2023-01-29T11:06:24;34.75;;;15.77;;
72301;SDS011;60235;52.234;5.186;2023-01-29T11:11:19;28.67;;;14.23;;
72301;SDS011;60235;52.234;5.186;2023-01-29T11:13:58;30.25;;;14.10;;
72301;SDS011;60235;52.234;5.186;2023-01-29T11:16:26;30.25;;;13.82;;
72301;SDS011;60235;52.234;5.186;2023-01-29T11:18:57;32.53;;;14.55;;
72301;SDS011;60235;52.234;5.186;2023-01-29T11:21:24;28.38;;;13.75;;
72301;SDS011;60235;52.234;5.186;2023-01-29T11:24:03;30.95;;;14.23;;
72301;SDS011;60235;52.234;5.186;2023-01-29T11:26:30;34.03;;;15.90;;
72301;SDS011;60235;52.234;5.186;2023-01-29T11:28:58;34.92;;;15.80;;
72301;SDS011;60235;52.234;5.186;2023-01-29T11:31:41;32.80;;;14.93;;
72301;SDS011;60235;52.234;5.186;2023-01-29T11:34:21;33.75;;;15.82;;
72301;SDS011;60235;52.234;5.186;2023-01-29T11:36:56;34.78;;;14.77;;
72301;SDS011;60235;52.234;5.186;2023-01-29T11:39:22;32.72;;;16.00;;
72301;SDS011;60235;52.234;5.186;2023-01-29T11:41:51;37.53;;;17.23;;
72301;SDS011;60235;52.234;5.186;2023-01-29T11:44:19;37.95;;;16.20;;
72301;SDS011;60235;52.234;5.186;2023-01-29T11:46:45;30.77;;;14.95;;
72301;SDS011;60235;52.234;5.186;2023-01-29T11:50:16;37.80;;;16.23;;
72301;SDS011;60235;52.234;5.186;2023-01-29T11:52:07;41.40;;;17.58;;
72301;SDS011;60235;52.234;5.186;2023-01-29T11:54:36;38.28;;;17.73;;
72301;SDS011;60235;52.234;5.186;2023-01-29T11:57:03;32.92;;;14.93;;
72301;SDS011;60235;52.234;5.186;2023-01-29T11:59:42;39.85;;;17.23;;
72301;SDS011;60235;52.234;5.186;2023-01-29T12:04:44;35.17;;;16.90;;
72301;SDS011;60235;52.234;5.186;2023-01-29T12:07:15;32.97;;;15.55;;
72301;SDS011;60235;52.234;5.186;2023-01-29T12:09:46;36.03;;;17.55;;
72301;SDS011;60235;52.234;5.186;2023-01-29T12:12:25;35.22;;;15.73;;
72301;SDS011;60235;52.234;5.186;2023-01-29T12:15:14;37.90;;;17.77;;
72301;SDS011;60235;52.234;5.186;2023-01-29T12:17:40;37.38;;;14.77;;
72301;SDS011;60235;52.234;5.186;2023-01-29T12:20:15;39.63;;;17.83;;
72301;SDS011;60235;52.234;5.186;2023-01-29T12:23:00;38.72;;;16.77;;
72301;SDS011;60235;52.234;5.186;2023-01-29T12:25:48;38.15;;;16.10;;
72301;SDS011;60235;52.234;5.186;2023-01-29T12:28:22;36.15;;;16.65;;
72301;SDS011;60235;52.234;5.186;2023-01-29T12:31:53;33.78;;;16.30;;
72301;SDS011;60235;52.234;5.186;2023-01-29T12:38:44;35.42;;;16.75;;
72301;SDS011;60235;52.234;5.186;2023-01-29T12:43:41;39.42;;;18.48;;
72301;SDS011;60235;52.234;5.186;2023-01-29T12:46:09;35.35;;;15.73;;
72301;SDS011;60235;52.234;5.186;2023-01-29T12:48:40;39.25;;;17.60;;
72301;SDS011;60235;52.234;5.186;2023-01-29T12:51:09;34.47;;;16.48;;
72301;SDS011;60235;52.234;5.186;2023-01-29T12:53:37;34.75;;;16.45;;
72301;SDS011;60235;52.234;5.186;2023-01-29T12:56:06;34.78;;;16.05;;
72301;SDS011;60235;52.234;5.186;2023-01-29T12:58:44;32.83;;;15.32;;
72301;SDS011;60235;52.234;5.186;2023-01-29T13:01:12;36.53;;;17.65;;
72301;SDS011;60235;52.234;5.186;2023-01-29T13:06:11;36.00;;;18.00;;
72301;SDS011;60235;52.234;5.186;2023-01-29T13:08:50;39.00;;;18.33;;
72301;SDS011;60235;52.234;5.186;2023-01-29T13:12:00;41.72;;;17.45;;
72301;SDS011;60235;52.234;5.186;2023-01-29T13:14:24;35.78;;;17.48;;
72301;SDS011;60235;52.234;5.186;2023-01-29T13:16:54;37.15;;;16.98;;
72301;SDS011;60235;52.234;5.186;2023-01-29T13:21:48;35.83;;;17.63;;
72301;SDS011;60235;52.234;5.186;2023-01-29T13:24:16;34.40;;;17.55;;
72301;SDS011;60235;52.234;5.186;2023-01-29T13:26:43;35.72;;;17.85;;
72301;SDS011;60235;52.234;5.186;2023-01-29T13:29:22;38.08;;;16.88;;
72301;SDS011;60235;52.234;5.186;2023-01-29T13:31:49;36.88;;;17.73;;
72301;SDS011;60235;52.234;5.186;2023-01-29T13:34:24;38.03;;;18.45;;
72301;SDS011;60235;52.234;5.186;2023-01-29T13:36:56;35.42;;;15.45;;
72301;SDS011;60235;52.234;5.186;2023-01-29T13:39:29;35.42;;;17.10;;
72301;SDS011;60235;52.234;5.186;2023-01-29T13:41:56;35.72;;;15.95;;
72301;SDS011;60235;52.234;5.186;2023-01-29T13:44:24;39.25;;;17.30;;
72301;SDS011;60235;52.234;5.186;2023-01-29T13:47:19;34.42;;;16.08;;
72301;SDS011;60235;52.234;5.186;2023-01-29T13:53:03;38.17;;;16.95;;
72301;SDS011;60235;52.234;5.186;2023-01-29T14:00:00;38.83;;;16.73;;
72301;SDS011;60235;52.234;5.186;2023-01-29T14:02:29;32.85;;;15.50;;
72301;SDS011;60235;52.234;5.186;2023-01-29T14:10:16;39.28;;;16.80;;
72301;SDS011;60235;52.234;5.186;2023-01-29T14:12:42;33.00;;;16.30;;
72301;SDS011;60235;52.234;5.186;2023-01-29T14:15:18;34.63;;;16.40;;
72301;SDS011;60235;52.234;5.186;2023-01-29T14:17:58;36.08;;;15.82;;
72301;SDS011;60235;52.234;5.186;2023-01-29T14:23:26;30.45;;;13.85;;
72301;SDS011;60235;52.234;5.186;2023-01-29T14:25:53;34.20;;;14.73;;
72301;SDS011;60235;52.234;5.186;2023-01-29T14:28:20;34.67;;;15.07;;
72301;SDS011;60235;52.234;5.186;2023-01-29T14:30:47;35.85;;;16.17;;
72301;SDS011;60235;52.234;5.186;2023-01-29T14:33:33;33.85;;;14.68;;
72301;SDS011;60235;52.234;5.186;2023-01-29T14:36:04;30.80;;;15.65;;
72301;SDS011;60235;52.234;5.186;2023-01-29T14:38:31;31.75;;;15.02;;
72301;SDS011;60235;52.234;5.186;2023-01-29T14:41:02;32.17;;;15.48;;
72301;SDS011;60235;52.234;5.186;2023-01-29T14:43:29;34.10;;;17.45;;
72301;SDS011;60235;52.234;5.186;2023-01-29T14:45:55;34.50;;;16.40;;
72301;SDS011;60235;52.234;5.186;2023-01-29T14:48:47;31.17;;;14.45;;
72301;SDS011;60235;52.234;5.186;2023-01-29T14:51:13;30.77;;;14.07;;
72301;SDS011;60235;52.234;5.186;2023-01-29T14:53:47;32.30;;;14.85;;
72301;SDS011;60235;52.234;5.186;2023-01-29T14:58:51;32.10;;;15.40;;
72301;SDS011;60235;52.234;5.186;2023-01-29T15:01:36;27.48;;;14.02;;
72301;SDS011;60235;52.234;5.186;2023-01-29T15:06:39;31.67;;;14.82;;
72301;SDS011;60235;52.234;5.186;2023-01-29T15:09:14;31.10;;;15.23;;
72301;SDS011;60235;52.234;5.186;2023-01-29T15:11:54;32.15;;;14.48;;
72301;SDS011;60235;52.234;5.186;2023-01-29T15:14:32;29.38;;;14.15;;
72301;SDS011;60235;52.234;5.186;2023-01-29T15:17:15;31.05;;;14.35;;
72301;SDS011;60235;52.234;5.186;2023-01-29T15:19:46;31.45;;;14.15;;
72301;SDS011;60235;52.234;5.186;2023-01-29T15:22:13;31.65;;;14.00;;
72301;SDS011;60235;52.234;5.186;2023-01-29T15:24:40;35.80;;;17.63;;
72301;SDS011;60235;52.234;5.186;2023-01-29T15:27:11;28.20;;;13.60;;
72301;SDS011;60235;52.234;5.186;2023-01-29T15:29:38;28.48;;;13.15;;
72301;SDS011;60235;52.234;5.186;2023-01-29T15:32:04;33.10;;;13.27;;
72301;SDS011;60235;52.234;5.186;2023-01-29T15:34:31;30.65;;;14.20;;
72301;SDS011;60235;52.234;5.186;2023-01-29T15:36:57;32.80;;;13.98;;
72301;SDS011;60235;52.234;5.186;2023-01-29T15:39:23;30.30;;;13.80;;
72301;SDS011;60235;52.234;5.186;2023-01-29T15:42:03;30.13;;;14.48;;
72301;SDS011;60235;52.234;5.186;2023-01-29T15:44:29;33.63;;;14.60;;
72301;SDS011;60235;52.234;5.186;2023-01-29T15:46:56;34.83;;;16.05;;
72301;SDS011;60235;52.234;5.186;2023-01-29T15:49:27;31.65;;;15.35;;
72301;SDS011;60235;52.234;5.186;2023-01-29T15:51:54;33.72;;;15.63;;
72301;SDS011;60235;52.234;5.186;2023-01-29T15:54:21;28.55;;;13.35;;
72301;SDS011;60235;52.234;5.186;2023-01-29T15:56:49;34.45;;;14.82;;
72301;SDS011;60235;52.234;5.186;2023-01-29T15:59:25;32.35;;;16.65;;
72301;SDS011;60235;52.234;5.186;2023-01-29T16:01:53;33.33;;;15.45;;
72301;SDS011;60235;52.234;5.186;2023-01-29T16:04:29;33.15;;;16.10;;
72301;SDS011;60235;52.234;5.186;2023-01-29T16:09:22;30.05;;;14.02;;
72301;SDS011;60235;52.234;5.186;2023-01-29T16:11:49;31.45;;;14.48;;
72301;SDS011;60235;52.234;5.186;2023-01-29T16:14:16;33.97;;;14.50;;
72301;SDS011;60235;52.234;5.186;2023-01-29T16:16:44;32.95;;;14.15;;
72301;SDS011;60235;52.234;5.186;2023-01-29T16:19:13;38.05;;;17.23;;
72301;SDS011;60235;52.234;5.186;2023-01-29T16:21:45;38.83;;;16.17;;
72301;SDS011;60235;52.234;5.186;2023-01-29T16:24:16;31.27;;;14.35;;
72301;SDS011;60235;52.234;5.186;2023-01-29T16:26:46;37.22;;;16.38;;
72301;SDS011;60235;52.234;5.186;2023-01-29T16:29:23;35.75;;;17.92;;
72301;SDS011;60235;52.234;5.186;2023-01-29T16:31:53;37.30;;;17.33;;
72301;SDS011;60235;52.234;5.186;2023-01-29T16:37:02;32.05;;;15.25;;
72301;SDS011;60235;52.234;5.186;2023-01-29T16:39:31;36.92;;;15.70;;
72301;SDS011;60235;52.234;5.186;2023-01-29T16:44:39;35.15;;;16.08;;
72301;SDS011;60235;52.234;5.186;2023-01-29T16:47:11;33.97;;;14.75;;
72301;SDS011;60235;52.234;5.186;2023-01-29T16:57:36;39.10;;;17.27;;
72301;SDS011;60235;52.234;5.186;2023-01-29T17:00:05;41.20;;;17.35;;
72301;SDS011;60235;52.234;5.186;2023-01-29T17:02:33;38.53;;;17.65;;
72301;SDS011;60235;52.234;5.186;2023-01-29T17:05:16;38.47;;;16.38;;
72301;SDS011;60235;52.234;5.186;2023-01-29T17:07:44;36.83;;;16.60;;
72301;SDS011;60235;52.234;5.186;2023-01-29T17:10:13;39.90;;;18.25;;
72301;SDS011;60235;52.234;5.186;2023-01-29T17:12:41;35.83;;;16.23;;
72301;SDS011;60235;52.234;5.186;2023-01-29T17:15:26;37.33;;;18.30;;
72301;SDS011;60235;52.234;5.186;2023-01-29T17:17:53;34.70;;;17.55;;